createdAt,value
2022-10-13T00:00:16.279Z,11.45
2022-10-13T00:02:44.177Z,10.65
2022-10-13T00:05:13.387Z,9.98
2022-10-13T00:07:41.285Z,9.68
2022-10-13T00:10:09.718Z,10.07
2022-10-13T00:12:38.154Z,9.27
2022-10-13T00:15:10.321Z,9.27
2022-10-13T00:17:38.241Z,10.48
2022-10-13T00:20:07.755Z,11.05
2022-10-13T00:22:36.935Z,10.63
2022-10-13T00:25:05.583Z,10.45
2022-10-13T00:27:33.361Z,10.70
2022-10-13T00:30:01.210Z,8.60
2022-10-13T00:32:28.948Z,8.73
2022-10-13T00:34:57.962Z,8.80
2022-10-13T00:37:25.823Z,9.90
2022-10-13T00:39:54.916Z,11.13
2022-10-13T00:42:26.333Z,10.25
2022-10-13T00:45:07.050Z,10.90
2022-10-13T00:47:40.721Z,10.65
2022-10-13T00:50:12.114Z,9.30
2022-10-13T00:52:42.744Z,10.80
2022-10-13T00:55:18.087Z,11.43
2022-10-13T00:57:47.720Z,11.68
2022-10-13T01:00:16.282Z,9.95
2022-10-13T01:02:44.062Z,10.60
2022-10-13T01:05:11.790Z,10.35
2022-10-13T01:07:39.574Z,9.13
2022-10-13T01:10:08.257Z,10.05
2022-10-13T01:12:48.964Z,10.07
2022-10-13T01:15:26.645Z,9.45
2022-10-13T01:18:03.361Z,10.40
2022-10-13T01:20:51.161Z,9.18
2022-10-13T01:23:31.477Z,11.07
2022-10-13T01:26:25.076Z,10.50
2022-10-13T01:29:12.929Z,9.52
2022-10-13T01:31:49.151Z,8.35
2022-10-13T01:34:24.270Z,9.35
2022-10-13T01:36:59.793Z,9.32
2022-10-13T01:39:37.024Z,10.45
2022-10-13T01:42:13.929Z,9.45
2022-10-13T01:44:48.282Z,9.95
2022-10-13T01:47:19.520Z,10.05
2022-10-13T01:49:49.130Z,10.73
2022-10-13T01:52:20.561Z,9.60
2022-10-13T01:54:49.734Z,10.35
2022-10-13T01:57:35.090Z,10.00
2022-10-13T02:00:06.243Z,10.90
2022-10-13T02:02:48.902Z,10.23
2022-10-13T02:05:26.715Z,10.27
2022-10-13T02:07:59.126Z,9.48
2022-10-13T02:10:33.557Z,10.07
2022-10-13T02:13:03.600Z,9.98
2022-10-13T02:15:36.778Z,10.65
2022-10-13T02:18:09.152Z,10.05
2022-10-13T02:20:37.666Z,9.40
2022-10-13T02:23:11.887Z,11.02
2022-10-13T02:25:40.355Z,9.38
2022-10-13T02:28:08.363Z,11.90
2022-10-13T02:30:44.893Z,11.57
2022-10-13T02:33:14.657Z,11.10
2022-10-13T02:35:42.937Z,10.57
2022-10-13T02:38:11.136Z,10.10
2022-10-13T02:40:39.707Z,9.57
2022-10-13T02:43:07.620Z,11.02
2022-10-13T02:45:35.489Z,11.50
2022-10-13T02:48:03.268Z,10.40
2022-10-13T02:50:32.453Z,9.30
2022-10-13T02:53:00.409Z,9.82
2022-10-13T02:55:28.375Z,12.20
2022-10-13T02:57:59.178Z,11.15
2022-10-13T03:00:27.616Z,9.50
2022-10-13T03:02:55.436Z,11.35
2022-10-13T03:05:23.583Z,9.85
2022-10-13T03:07:52.734Z,11.20
2022-10-13T03:10:20.587Z,10.57
2022-10-13T03:12:50.884Z,9.57
2022-10-13T03:15:18.886Z,9.45
2022-10-13T03:17:47.883Z,10.88
2022-10-13T03:20:15.965Z,12.30
2022-10-13T03:22:47.371Z,11.48
2022-10-13T03:25:19.011Z,12.43
2022-10-13T03:27:46.831Z,10.65
2022-10-13T03:30:14.766Z,11.55
2022-10-13T03:32:42.502Z,11.20
2022-10-13T03:35:10.636Z,10.68
2022-10-13T03:37:38.365Z,11.93
2022-10-13T03:40:07.396Z,10.75
2022-10-13T03:42:38.208Z,10.73
2022-10-13T03:45:06.786Z,10.35
2022-10-13T03:47:37.009Z,11.30
2022-10-13T03:50:06.814Z,11.38
2022-10-13T03:52:34.611Z,9.93
2022-10-13T03:55:02.499Z,9.82
2022-10-13T03:57:30.743Z,11.70
2022-10-13T04:00:00.059Z,12.15
2022-10-13T04:02:29.464Z,13.27
2022-10-13T04:04:59.289Z,11.02
2022-10-13T04:07:27.026Z,11.20
2022-10-13T04:09:54.867Z,10.52
2022-10-13T04:12:22.911Z,10.27
2022-10-13T04:14:50.908Z,12.02
2022-10-13T04:17:20.048Z,11.52
2022-10-13T04:19:47.926Z,9.10
2022-10-13T04:22:15.757Z,9.48
2022-10-13T04:24:48.897Z,11.85
2022-10-13T04:27:19.073Z,9.50
2022-10-13T04:29:47.258Z,9.27
2022-10-13T04:32:15.015Z,10.13
2022-10-13T04:34:44.649Z,10.70
2022-10-13T04:37:12.427Z,9.05
2022-10-13T04:39:40.214Z,9.60
2022-10-13T04:42:08.005Z,10.82
2022-10-13T04:44:38.956Z,10.07
2022-10-13T04:47:08.148Z,9.55
2022-10-13T04:49:35.882Z,12.27
2022-10-13T04:52:05.036Z,11.90
2022-10-13T04:54:32.808Z,11.75
2022-10-13T04:57:00.552Z,10.63
2022-10-13T04:59:28.627Z,11.77
2022-10-13T05:01:56.361Z,10.05
2022-10-13T05:04:24.113Z,9.73
2022-10-13T05:07:16.332Z,10.48
2022-10-13T05:09:42.640Z,9.95
2022-10-13T05:12:13.852Z,10.18
2022-10-13T05:14:41.649Z,10.10
2022-10-13T05:17:09.579Z,9.48
2022-10-13T05:19:37.397Z,11.60
2022-10-13T05:22:05.281Z,8.82
2022-10-13T05:24:37.279Z,10.15
2022-10-13T05:27:09.845Z,10.73
2022-10-13T05:29:37.989Z,10.40
2022-10-13T05:32:06.586Z,8.88
2022-10-13T05:34:34.459Z,10.40
2022-10-13T05:37:02.726Z,9.10
2022-10-13T05:39:33.015Z,8.38
2022-10-13T05:42:00.866Z,9.63
2022-10-13T05:44:30.250Z,9.98
2022-10-13T05:46:58.195Z,11.05
2022-10-13T05:49:26.183Z,9.48
2022-10-13T05:51:57.001Z,9.95
2022-10-13T05:54:31.074Z,11.05
2022-10-13T05:57:04.005Z,9.27
2022-10-13T05:59:37.999Z,12.45
2022-10-13T06:02:09.172Z,9.82
2022-10-13T06:04:41.136Z,10.35
2022-10-13T06:07:10.162Z,10.45
2022-10-13T06:09:39.866Z,12.25
2022-10-13T06:12:09.109Z,10.73
2022-10-13T06:14:38.546Z,10.38
2022-10-13T06:17:08.542Z,11.70
2022-10-13T06:19:36.545Z,9.23
2022-10-13T06:22:08.256Z,8.82
2022-10-13T06:24:36.169Z,10.65
2022-10-13T06:27:04.905Z,9.85
2022-10-13T06:29:33.487Z,9.82
2022-10-13T06:32:02.920Z,9.13
2022-10-13T06:34:30.705Z,11.07
2022-10-13T06:36:58.501Z,9.18
2022-10-13T06:39:27.078Z,11.88
2022-10-13T06:41:55.368Z,9.75
2022-10-13T06:44:31.323Z,10.18
2022-10-13T06:47:04.104Z,9.30
2022-10-13T06:49:32.075Z,10.75
2022-10-13T06:52:00.058Z,8.73
2022-10-13T06:54:27.877Z,9.00
2022-10-13T06:56:55.670Z,10.10
2022-10-13T06:59:23.602Z,8.50
2022-10-13T07:01:51.802Z,12.23
2022-10-13T07:04:24.014Z,11.20
2022-10-13T07:06:54.340Z,11.38
2022-10-13T07:09:22.371Z,9.02
2022-10-13T07:11:50.529Z,9.18
2022-10-13T07:14:18.285Z,10.48
2022-10-13T07:16:46.088Z,11.82
2022-10-13T07:19:14.170Z,10.43
2022-10-13T07:21:43.741Z,12.55
2022-10-13T07:24:12.896Z,9.95
2022-10-13T07:26:40.673Z,9.63
2022-10-13T07:29:08.628Z,8.57
2022-10-13T07:31:36.387Z,9.45
2022-10-13T07:34:04.958Z,10.52
2022-10-13T07:36:33.378Z,11.70
2022-10-13T07:39:03.910Z,11.93
2022-10-13T07:41:32.409Z,11.60
2022-10-13T07:44:00.377Z,9.13
2022-10-13T07:46:28.232Z,8.80
2022-10-13T07:48:56.610Z,8.48
2022-10-13T07:51:24.549Z,10.30
2022-10-13T07:53:52.401Z,9.65
2022-10-13T07:56:21.544Z,10.95
2022-10-13T07:58:49.653Z,8.50
2022-10-13T08:01:18.192Z,10.10
2022-10-13T08:03:49.903Z,11.25
2022-10-13T08:06:19.788Z,9.00
2022-10-13T08:08:48.470Z,10.70
2022-10-13T08:11:18.577Z,9.07
2022-10-13T08:13:52.449Z,9.55
2022-10-13T08:16:23.399Z,9.60
2022-10-13T08:18:51.663Z,8.82
2022-10-13T08:24:12.992Z,10.88
2022-10-13T08:26:41.444Z,10.15
2022-10-13T08:29:26.790Z,8.90
2022-10-13T08:31:55.319Z,8.15
2022-10-13T08:34:23.645Z,8.38
2022-10-13T08:36:53.490Z,9.35
2022-10-13T08:39:25.544Z,9.85
2022-10-13T08:41:55.269Z,10.00
2022-10-13T08:47:31.484Z,9.18
2022-10-13T08:50:03.206Z,9.73
2022-10-13T08:52:46.055Z,10.52
2022-10-13T08:55:21.362Z,9.35
2022-10-13T08:57:49.520Z,8.15
2022-10-13T09:00:19.675Z,9.63
2022-10-13T09:02:50.687Z,11.17
2022-10-13T09:05:28.442Z,8.45
2022-10-13T09:08:06.612Z,9.48
2022-10-13T09:10:46.736Z,9.40
2022-10-13T09:13:18.306Z,9.77
2022-10-13T09:15:50.434Z,9.60
2022-10-13T09:18:18.356Z,7.75
2022-10-13T09:20:46.128Z,8.70
2022-10-13T09:23:21.187Z,8.30
2022-10-13T09:25:50.536Z,11.48
2022-10-13T09:28:23.549Z,10.40
2022-10-13T09:31:03.982Z,8.95
2022-10-13T09:33:36.328Z,9.00
2022-10-13T09:36:12.070Z,7.78
2022-10-13T09:38:41.074Z,8.35
2022-10-13T09:41:16.887Z,9.40
2022-10-13T09:43:59.843Z,7.57
2022-10-13T09:46:32.894Z,8.30
2022-10-13T09:49:05.055Z,8.88
2022-10-13T09:51:38.740Z,8.80
2022-10-13T09:54:29.928Z,9.98
2022-10-13T09:57:02.736Z,8.52
2022-10-13T09:59:34.837Z,9.05
2022-10-13T10:02:21.341Z,9.53
2022-10-13T10:04:54.218Z,8.43
2022-10-13T10:07:29.899Z,8.32
2022-10-13T10:10:02.776Z,8.30
2022-10-13T10:12:34.756Z,9.13
2022-10-13T10:15:02.643Z,8.38
2022-10-13T10:17:38.704Z,6.78
2022-10-13T10:20:24.993Z,8.50
2022-10-13T10:23:00.499Z,9.23
2022-10-13T10:25:34.893Z,7.38
2022-10-13T10:28:33.261Z,7.75
2022-10-13T10:31:10.992Z,7.97
2022-10-13T10:33:50.964Z,10.95
2022-10-13T10:36:24.633Z,6.97
2022-10-13T10:38:56.106Z,8.57
2022-10-13T10:41:38.455Z,9.07
2022-10-13T10:44:11.030Z,8.85
2022-10-13T10:46:43.427Z,10.05
2022-10-13T10:49:19.581Z,7.50
2022-10-13T10:51:48.034Z,9.35
2022-10-13T10:54:26.937Z,8.85
2022-10-13T10:56:57.383Z,6.88
2022-10-13T10:59:40.177Z,8.70
2022-10-13T11:04:54.570Z,8.85
2022-10-13T11:07:58.290Z,7.80
2022-10-13T11:13:22.456Z,6.80
2022-10-13T11:15:50.694Z,8.98
2022-10-13T11:19:05.595Z,7.38
2022-10-13T11:22:16.867Z,8.93
2022-10-13T11:24:47.697Z,8.45
2022-10-13T11:27:39.100Z,6.82
2022-10-13T11:30:42.494Z,7.68
2022-10-13T11:33:36.488Z,7.32
2022-10-13T11:36:41.848Z,7.70
2022-10-13T11:39:42.798Z,7.68
2022-10-13T11:42:27.400Z,7.28
2022-10-13T11:44:57.946Z,7.38
2022-10-13T11:47:58.252Z,9.75
2022-10-13T11:50:36.309Z,7.00
2022-10-13T11:53:18.683Z,7.93
2022-10-13T11:55:51.517Z,7.75
2022-10-13T11:58:22.822Z,7.00
2022-10-13T12:00:52.821Z,6.00
2022-10-13T12:03:22.637Z,4.07
2022-10-13T12:05:52.159Z,4.65
2022-10-13T12:08:22.283Z,6.30
2022-10-13T12:10:57.225Z,5.35
2022-10-13T12:13:29.769Z,4.18
2022-10-13T12:16:00.828Z,4.65
2022-10-13T12:18:33.834Z,5.00
2022-10-13T12:21:04.361Z,6.47
2022-10-13T12:23:33.639Z,5.38
2022-10-13T12:26:02.229Z,5.47
2022-10-13T12:28:45.693Z,6.05
2022-10-13T12:31:20.457Z,5.82
2022-10-13T12:33:54.445Z,4.80
2022-10-13T12:36:29.345Z,4.07
2022-10-13T12:39:01.844Z,6.18
2022-10-13T12:41:31.854Z,5.88
2022-10-13T12:44:04.049Z,6.20
2022-10-13T12:46:40.215Z,4.97
2022-10-13T12:49:08.921Z,5.40
2022-10-13T12:51:37.964Z,5.53
2022-10-13T12:54:10.537Z,4.63
2022-10-13T12:56:38.405Z,5.05
2022-10-13T12:59:18.008Z,4.80
2022-10-13T13:01:55.324Z,5.32
2022-10-13T13:04:33.151Z,6.25
2022-10-13T13:07:02.881Z,6.05
2022-10-13T13:09:31.979Z,6.53
2022-10-13T13:12:23.545Z,6.85
2022-10-13T13:14:55.005Z,6.53
2022-10-13T13:17:45.749Z,6.78
2022-10-13T13:20:22.844Z,6.70
2022-10-13T13:22:51.840Z,6.15
2022-10-13T13:25:19.907Z,4.47
2022-10-13T13:27:47.837Z,5.97
2022-10-13T13:30:21.214Z,5.82
2022-10-13T13:32:52.728Z,4.55
2022-10-13T13:35:20.517Z,7.85
2022-10-13T13:37:51.177Z,4.85
2022-10-13T13:40:21.684Z,5.13
2022-10-13T13:42:49.590Z,5.97
2022-10-13T13:45:20.730Z,6.55
2022-10-13T13:47:49.082Z,6.90
2022-10-13T13:50:20.277Z,6.38
2022-10-13T13:52:57.064Z,4.97
2022-10-13T13:55:25.429Z,5.43
2022-10-13T13:57:53.192Z,5.90
2022-10-13T14:00:23.222Z,5.05
2022-10-13T14:02:55.763Z,6.25
2022-10-13T14:05:23.705Z,6.85
2022-10-13T14:07:54.967Z,7.60
2022-10-13T14:10:23.113Z,5.68
2022-10-13T14:12:51.534Z,6.63
2022-10-13T14:15:19.682Z,5.95
2022-10-13T14:17:49.208Z,5.40
2022-10-13T14:20:17.149Z,7.22
2022-10-13T14:22:45.482Z,6.15
2022-10-13T14:25:15.309Z,6.28
2022-10-13T14:27:45.723Z,7.90
2022-10-13T14:30:14.796Z,5.35
2022-10-13T14:32:42.794Z,6.15
2022-10-13T14:35:12.054Z,6.30
2022-10-13T14:37:40.153Z,5.72
2022-10-13T14:40:09.071Z,5.53
2022-10-13T14:42:36.878Z,6.80
2022-10-13T14:45:06.613Z,8.65
2022-10-13T14:47:34.356Z,6.75
2022-10-13T14:50:02.237Z,8.38
2022-10-13T14:52:31.659Z,6.43
2022-10-13T14:55:00.011Z,6.43
2022-10-13T14:57:27.885Z,6.68
2022-10-13T15:00:02.110Z,7.32
2022-10-13T15:02:34.589Z,8.40
2022-10-13T15:05:02.584Z,6.47
2022-10-13T15:07:32.627Z,7.20
2022-10-13T15:10:07.889Z,7.45
2022-10-13T15:12:35.869Z,7.15
2022-10-13T15:15:04.420Z,7.93
2022-10-13T15:17:33.325Z,8.10
2022-10-13T15:20:01.220Z,7.00
2022-10-13T15:22:29.086Z,8.68
2022-10-13T15:24:58.529Z,8.02
2022-10-13T15:27:26.517Z,8.27
2022-10-13T15:29:54.548Z,8.73
2022-10-13T15:32:22.542Z,8.35
2022-10-13T15:34:54.351Z,7.20
2022-10-13T15:37:22.183Z,8.40
2022-10-13T15:39:54.532Z,10.88
2022-10-13T15:42:26.317Z,8.73
2022-10-13T15:45:11.038Z,8.30
2022-10-13T15:47:39.768Z,8.88
2022-10-13T15:50:08.695Z,8.00
2022-10-13T15:52:38.948Z,8.93
2022-10-13T15:55:07.324Z,9.30
2022-10-13T15:57:36.624Z,8.32
2022-10-13T16:00:05.472Z,10.38
2022-10-13T16:02:40.446Z,8.70
2022-10-13T16:05:10.199Z,9.40
2022-10-13T16:07:39.320Z,8.75
2022-10-13T16:10:08.069Z,8.80
2022-10-13T16:12:39.824Z,8.20
2022-10-13T16:15:09.001Z,9.35
2022-10-13T16:17:37.313Z,7.88
2022-10-13T16:20:06.374Z,9.60
2022-10-13T16:22:34.232Z,8.07
2022-10-13T16:25:02.104Z,9.85
2022-10-13T16:27:29.920Z,8.10
2022-10-13T16:29:59.292Z,8.35
2022-10-13T16:32:27.212Z,7.68
2022-10-13T16:34:55.533Z,8.73
2022-10-13T16:37:23.832Z,10.68
2022-10-13T16:39:52.263Z,7.72
2022-10-13T16:42:20.309Z,8.85
2022-10-13T16:44:48.608Z,10.68
2022-10-13T16:47:18.798Z,8.80
2022-10-13T16:49:47.454Z,10.05
2022-10-13T16:52:15.864Z,9.10
2022-10-13T16:54:44.860Z,9.20
2022-10-13T16:57:12.681Z,9.65
2022-10-13T16:59:40.588Z,10.98
2022-10-13T17:02:12.940Z,9.82
2022-10-13T17:04:43.355Z,9.88
2022-10-13T17:07:11.175Z,9.10
2022-10-13T17:09:44.094Z,8.13
2022-10-13T17:12:12.135Z,7.93
2022-10-13T17:14:40.225Z,7.55
2022-10-13T17:17:07.996Z,8.50
2022-10-13T17:19:35.839Z,10.23
2022-10-13T17:22:04.985Z,7.30
2022-10-13T17:24:32.734Z,8.10
2022-10-13T17:27:00.649Z,9.82
2022-10-13T17:29:28.371Z,7.80
2022-10-13T17:31:56.752Z,6.40
2022-10-13T17:34:24.563Z,7.00
2022-10-13T17:36:52.393Z,7.60
2022-10-13T17:39:21.574Z,7.63
2022-10-13T17:41:49.566Z,7.00
2022-10-13T17:44:20.788Z,6.90
2022-10-13T17:46:49.754Z,7.15
2022-10-13T17:49:18.326Z,7.18
2022-10-13T17:51:46.652Z,8.63
2022-10-13T17:54:16.424Z,7.75
2022-10-13T17:56:46.531Z,8.43
2022-10-13T18:01:08.187Z,6.32
2022-10-13T18:03:03.255Z,6.47
2022-10-13T18:05:31.470Z,5.90
2022-10-13T18:08:06.304Z,7.30
2022-10-13T18:11:03.621Z,6.40
2022-10-13T18:13:25.853Z,5.78
2022-10-13T18:15:53.639Z,7.18
2022-10-13T18:18:21.539Z,6.70
2022-10-13T18:20:49.372Z,6.72
2022-10-13T18:23:17.418Z,7.82
2022-10-13T18:25:45.237Z,7.00
2022-10-13T18:28:13.074Z,8.43
2022-10-13T18:30:42.277Z,7.55
2022-10-13T18:33:10.137Z,9.77
2022-10-13T18:35:37.987Z,8.82
2022-10-13T18:38:06.308Z,6.88
2022-10-13T18:40:36.240Z,7.90
2022-10-13T18:43:04.131Z,6.90
2022-10-13T18:45:35.889Z,7.97
2022-10-13T18:48:05.273Z,10.18
2022-10-13T18:50:33.238Z,9.38
2022-10-13T18:53:01.358Z,8.05
2022-10-13T18:55:30.837Z,7.55
2022-10-13T18:57:59.081Z,7.43
2022-10-13T19:00:26.899Z,7.72
2022-10-13T19:02:54.829Z,6.82
2022-10-13T19:05:23.940Z,8.43
2022-10-13T19:07:57.991Z,6.85
2022-10-13T19:10:26.013Z,7.60
2022-10-13T19:12:53.846Z,6.90
2022-10-13T19:15:22.422Z,5.75
2022-10-13T19:17:50.982Z,5.93
2022-10-13T19:20:18.908Z,5.78
2022-10-13T19:22:48.105Z,5.68
2022-10-13T19:25:16.447Z,6.10
2022-10-13T19:27:44.302Z,6.13
2022-10-13T19:30:13.242Z,4.93
2022-10-13T19:32:41.223Z,4.93
2022-10-13T19:35:09.296Z,4.40
2022-10-13T19:37:37.742Z,4.57
2022-10-13T19:40:08.602Z,5.47
2022-10-13T19:42:36.428Z,5.15
2022-10-13T19:45:06.808Z,4.95
2022-10-13T19:47:34.711Z,4.38
2022-10-13T19:50:02.531Z,4.57
2022-10-13T19:52:30.717Z,4.40
2022-10-13T19:54:58.636Z,4.80
2022-10-13T19:57:27.853Z,5.63
2022-10-13T19:59:55.889Z,4.88
2022-10-13T20:02:23.744Z,4.82
2022-10-13T20:04:51.835Z,5.47
2022-10-13T20:07:19.888Z,4.78
2022-10-13T20:09:47.863Z,5.07
2022-10-13T20:12:15.758Z,5.47
2022-10-13T20:14:48.814Z,3.70
2022-10-13T20:17:16.711Z,3.83
2022-10-13T20:19:44.518Z,4.20
2022-10-13T20:22:12.626Z,4.53
2022-10-13T20:24:40.363Z,4.00
2022-10-13T20:27:08.410Z,4.93
2022-10-13T20:29:36.187Z,5.43
2022-10-13T20:32:05.682Z,4.55
2022-10-13T20:34:34.025Z,4.60
2022-10-13T20:37:01.871Z,6.47
2022-10-13T20:39:30.168Z,4.07
2022-10-13T20:41:58.023Z,4.97
2022-10-13T20:44:26.113Z,4.63
2022-10-13T20:46:53.962Z,6.10
2022-10-13T20:49:24.001Z,3.90
2022-10-13T20:51:51.827Z,4.45
2022-10-13T20:54:19.668Z,3.53
2022-10-13T20:56:47.878Z,4.93
2022-10-13T20:59:15.814Z,4.97
2022-10-13T21:01:44.156Z,5.03
2022-10-13T21:04:12.306Z,5.75
2022-10-13T21:06:42.105Z,3.88
2022-10-13T21:09:10.533Z,5.82
2022-10-13T21:11:40.626Z,4.28
2022-10-13T21:14:09.661Z,4.00
2022-10-13T21:16:37.839Z,5.78
2022-10-13T21:19:10.241Z,4.80
2022-10-13T21:21:38.155Z,4.68
2022-10-13T21:24:11.925Z,5.22
2022-10-13T21:26:41.156Z,4.15
2022-10-13T21:29:14.389Z,4.15
2022-10-13T21:31:42.190Z,5.80
2022-10-13T21:34:11.443Z,4.72
2022-10-13T21:36:42.384Z,4.47
2022-10-13T21:39:13.457Z,4.38
2022-10-13T21:41:41.375Z,5.45
2022-10-13T21:44:09.119Z,5.93
2022-10-13T21:46:37.085Z,4.97
2022-10-13T21:49:06.847Z,4.15
2022-10-13T21:51:36.754Z,5.82
2022-10-13T21:54:08.901Z,5.30
2022-10-13T21:56:39.979Z,4.63
2022-10-13T21:59:08.213Z,5.03
2022-10-13T22:01:36.035Z,5.13
2022-10-13T22:04:10.811Z,3.95
2022-10-13T22:06:38.650Z,5.10
2022-10-13T22:09:07.505Z,4.75
2022-10-13T22:11:38.807Z,4.25
2022-10-13T22:14:11.493Z,5.00
2022-10-13T22:16:41.821Z,5.63
2022-10-13T22:19:10.542Z,4.38
2022-10-13T22:21:44.006Z,4.53
2022-10-13T22:24:14.102Z,4.35
2022-10-13T22:26:44.326Z,5.65
2022-10-13T22:29:14.917Z,5.00
2022-10-13T22:31:44.021Z,4.35
2022-10-13T22:34:14.991Z,6.50
2022-10-13T22:36:45.049Z,5.28
2022-10-13T22:39:14.011Z,4.78
2022-10-13T22:41:43.229Z,6.13
2022-10-13T22:44:11.443Z,5.55
2022-10-13T22:46:40.490Z,4.88
2022-10-13T22:49:13.414Z,5.53
2022-10-13T22:51:41.548Z,5.20
2022-10-13T22:54:10.748Z,5.18
2022-10-13T22:56:38.659Z,6.78
2022-10-13T22:59:09.116Z,6.70
2022-10-13T23:01:37.366Z,6.28
2022-10-13T23:04:05.354Z,6.80
2022-10-13T23:06:34.969Z,5.40
2022-10-13T23:09:03.917Z,5.72
2022-10-13T23:11:31.813Z,6.90
2022-10-13T23:14:01.620Z,6.55
2022-10-13T23:16:31.417Z,5.75
2022-10-13T23:18:59.275Z,5.32
2022-10-13T23:21:29.541Z,6.05
2022-10-13T23:23:58.661Z,5.53
2022-10-13T23:26:27.063Z,6.20
2022-10-13T23:28:55.605Z,5.90
2022-10-13T23:31:23.674Z,7.55
2022-10-13T23:33:52.924Z,8.07
2022-10-13T23:36:22.467Z,6.75
2022-10-13T23:38:55.799Z,5.63
2022-10-13T23:41:23.688Z,5.72
2022-10-13T23:43:51.489Z,5.95
2022-10-13T23:46:19.734Z,6.30
2022-10-13T23:48:47.899Z,6.85
2022-10-13T23:51:19.037Z,5.78
2022-10-13T23:53:47.920Z,5.72
2022-10-13T23:56:16.315Z,6.78
2022-10-13T23:58:45.364Z,7.07
